Upload a Photo Upload a Video Add a News article Write a Blog Add a Comment
Blog Feed News Feed Video Feed All Feeds
Custom Poster App Racetime Photo App NikeCrossNationals.com

2010 NXN Girls Championship Race

 RecordTiming.com - Contractor License                       HY-TEK's Meet Manager
Nike Cross Nationals - 12/4/2010
Portland Meadow -Portland, OR
Last Completed Event

Event 3 Girls 5k Run CC Championship
==================================================================================
Name Year School Avg Mile Finals Points
==================================================================================
1 #91 Rachel Johnson 11 South-1 5:53.6 18:18.6
2 #136 Christie Rutledge 12 Manlius XC Club 5:54.5 18:21.4 1
3 #54 Amy-Eloise Neale 13 Northwest-2 6:03.4 18:48.8
4 #135 Katie Sischo 12 Manlius XC Club 6:03.6 18:49.7 2
5 #96 Haley Pierce 12 Wilmington XC Club 6:03.9 18:50.4 3
6 #134 Jillian Fanning 13 Manlius XC Club 6:04.3 18:51.7 4
7 #157 Shaylyn Tuite 11 New York-3 6:04.4 18:52.1
8 #53 Katie Knight 13 Northwest-1 6:04.8 18:53.3
9 #52 Caroline Hardin 14 Bozeman XC Club 6:04.9 18:53.5 5
10 #155 Brittany Winslow 11 New York-1 6:05.1 18:54.2
11 #148 Samantha Nadel 12 Glen Head XC Club 6:07.5 19:01.7 6
12 #34 Kayla Beattie 11 Midwest-1 6:09.7 19:08.6
13 #199 Camille Chapus 12 California-5 6:10.4 19:10.7
14 #15 Allison Woodward 11 Heartland-1 6:10.7 19:11.5
15 #40 Annmarie Maag 11 Portland XC Club 6:10.9 19:12.1 7
16 #137 Heather Martin 12 Manlius XC Club 6:10.9 19:12.2 8
17 #58 Erin Hooker 13 Fort Collins XC 6:12.4 19:16.9 9
18 #38 Brooke Wolfe 13 Midwest-5 6:13.0 19:18.8
19 #35 Samantha Nightingal 12 Midwest-2 6:13.4 19:19.9
20 #156 Kelsey Margey 12 New York-2 6:14.7 19:24.0
21 #167 Kaylin Mahoney 11 Newhall XC Club 6:15.2 19:25.5 10
22 #169 Stephanie Bulder 11 Newhall XC Club 6:15.2 19:25.6 11
23 #132 Margo Malone 12 Northeast-4 6:15.2 19:25.6
24 #56 Emily Nist 12 Northwest-4 6:15.6 19:26.7
25 #129 Molly McNamara 11 Northeast-1 6:16.1 19:28.4
26 #110 Annie LeHardy 11 Southeast-1 6:16.1 19:28.5
27 #37 Carly Hamilton 11 Midwest-4 6:17.9 19:34.1
28 #16 Shelby Houlihan 11 Heartland-2 6:18.4 19:35.6
29 #138 Courtney Chapman 11 Manlius XC Club 6:18.9 19:37.0 12
30 #18 Tamara Gorman 14 Heartland-4 6:19.2 19:37.9
31 #133 Samantha Jones 12 Northeast-5 6:20.7 19:42.6
32 #181 Jessica Hilton 11 Temecula XC Club 6:22.2 19:47.2 13
33 #36 Michelle Thomas 11 Midwest-3 6:22.4 19:47.8
34 #150 Brianna Nerud 12 Glen Head XC Club 6:22.6 19:48.7 14
35 #146 Taylor Driscoll 13 Kinetic XC Club 6:23.0 19:49.7 15
36 #17 Jamie Piepenburg 12 Heartland-3 6:23.2 19:50.5
37 #198 Kelsey Santisteban 11 California-4 6:23.3 19:50.8
38 #112 Haley Cutright 11 Southeast-3 6:23.4 19:51.1
39 #149 Jessica Donohue 13 Glen Head XC Club 6:23.8 19:52.4 16
40 #130 Lindsay Crevoiserat 11 Northeast-2 6:24.4 19:54.2
41 #111 Lindsay Olivere 11 Southeast-2 6:24.7 19:55.1
42 #30 Sarah Bennett 12 Carmel XC Club 6:24.9 19:55.9 17
43 #171 Danielle Hernando 11 Newhall XC Club 6:25.0 19:56.1 18
44 #76 Kristen Kientz 12 Southwest-5 6:25.1 19:56.3
45 #84 Madi McLellan 14 The Woodlands XC 6:25.1 19:56.3 19
46 #141 Amanda Borroughs 11 Kinetic XC Club 6:25.3 19:57.0 20
47 #142 Madison Carr 13 Kinetic XC Club 6:25.4 19:57.4 21
48 #143 Sydney King 11 Kinetic XC Club 6:25.5 19:57.7 22
49 #196 Rebecca Mehra 12 California-2 6:25.7 19:58.1
50 #114 Tenley Godfrey 11 Southeast-5 6:25.7 19:58.3
51 #7 Tenelle Berard 14 Des Moines XC Club 6:25.9 19:58.9 23
52 #192 Emma Abrahamson 14 La Costa XC Club 6:26.5 20:00.6 24
53 #158 Anne Carey 11 New York-4 6:27.3 20:03.3
54 #59 Marci Witczak 11 Fort Collins XC 6:27.7 20:04.4 25
55 #147 Keelin Hollowood 12 Kinetic XC Club 6:27.8 20:04.6 26
56 #113 Hannah Jumper 11 Southeast-4 6:27.9 20:04.9
57 #21 Courtney Brown 11 Palatine XC Club 6:28.2 20:06.1 27
58 #145 Estela Smith 15 Kinetic XC Club 6:28.6 20:07.2 28
59 #195 Macy Bricks 11 California-1 6:29.0 20:08.3
60 #73 Shea Martinez 13 Southwest-2 6:29.2 20:09.0
61 #182 Katie Johnson 11 Temecula XC Club 6:29.7 20:10.7 29
62 #177 Kelli Sugimoto 12 Manhattan Beach 6:29.9 20:11.3 30
63 #160 Mikayla Kightlinger 13 Wheaton South XC 6:30.0 20:11.5 31
64 #19 Maria Hauter 13 Heartland-5 6:30.0 20:11.7
65 #174 Savannah Pio 11 Manhattan Beach 6:30.1 20:11.8 32
66 #97 Lauren Blackwell 11 Wilmington XC Club 6:30.2 20:12.1 33
67 #10 Megan Platner 11 Eden Praire XC Club 6:30.3 20:12.7 34
68 #95 Maggie Montoya 13 South-5 6:30.4 20:13.0
69 #72 Sarah Fakler 13 Southwest-1 6:30.8 20:14.0
70 #170 Merissa Kado 11 Newhall XC Club 6:30.8 20:14.0 35
71 #42 Amira Joseph 11 Portland XC Club 6:31.0 20:14.7 36
72 #191 Kelly Lawson 13 La Costa XC Club 6:31.2 20:15.2 37
73 #92 Karis Jochen 13 South-2 6:32.2 20:18.4
74 #162 McKenna Kiple 13 Wheaton South XC 6:32.6 20:19.7 38
75 #25 Sarah McIntosh 11 Palatine XC Club 6:32.7 20:20.1 39
76 #131 Julianna Miller 11 Northeast-3 6:32.9 20:20.5
77 #65 Claire Green 14 Louisville XC Club 6:33.0 20:21.1 40
78 #159 Meghan McCormick 12 New York-5 6:33.2 20:21.4
79 #98 Kieran Hanrahan 15 Wilmington XC Club 6:33.3 20:21.9 41
80 #104 Jessica Rossabi 12 Western Cary XC 6:33.5 20:22.3 42
81 #74 Hannah Everson 12 Southwest-3 6:34.3 20:24.9
82 #93 Hillary Montgomery 11 South-3 6:34.8 20:26.6
83 #55 Tansey Lystad 11 Northwest-3 6:35.7 20:29.2
84 #168 Karis Frankian 12 Newhall XC Club 6:35.8 20:29.5 43
85 #94 Cali Roper 12 South-4 6:35.9 20:29.9
86 #27 Alexandra Chitwood 11 Carmel XC Club 6:35.9 20:30.1 44
87 #39 Payton Schutte 11 Portland XC Club 6:36.4 20:31.4 45
88 #122 Taylor Spillane 13 Champlain Valley 6:36.6 20:32.1 46
89 #103 Erica Amatori 12 Western Cary XC 6:37.1 20:33.5 47
90 #28 Renee Wellman 12 Carmel XC Club 6:37.2 20:33.9 48
91 #77 Shelby Chapin 13 Carroll XC Club 6:37.5 20:35.0 49
92 #172 Alexandra Hampton 11 Newhall XC Club 6:38.2 20:37.1 50
93 #99 Reagan Anderson 13 Wilmington XC Club 6:38.2 20:37.2 51
94 #22 Tess Wasowicz 13 Palatine XC Club 6:38.3 20:37.3 52
95 #197 Jessie Peterson 12 California-3 6:38.6 20:38.4
96 #140 Emily McGurrin 12 Manlius XC Club 6:38.9 20:39.1 53
97 #144 Molly Pezzulo 11 Kinetic XC Club 6:38.9 20:39.1 54
98 #13 Hannah Jeter 13 Eden Praire XC Club 6:39.1 20:39.8 55
99 #183 Pauline Mandel 12 Temecula XC Club 6:39.2 20:40.1 56
100 #105 Olivia Enright 11 Western Cary XC 6:39.4 20:40.7 57
101 #60 Audrey Oweimrin 14 Fort Collins XC 6:39.7 20:41.7 58
102 #106 Maura McDonnell 13 Western Cary XC 6:39.8 20:42.2 59
103 #51 Heidi Turner 11 Bozeman XC Club 6:40.1 20:42.9 60
104 #26 Emily Schulte 12 Palatine XC Club 6:40.4 20:43.9 61
105 #188 Ellie Abrahamson 13 La Costa XC Club 6:40.8 20:45.1 62
106 #115 Nisa Cicitta 13 Hunterdon XC Club 6:41.0 20:45.8 63
107 #139 Katie Brislin 13 Manlius XC Club 6:41.3 20:46.8 64
108 #49 Katherine Keith 11 Bozeman XC Club 6:41.6 20:47.6 65
109 #57 Erin Clark 13 Northwest-5 6:41.7 20:47.8
110 #45 Adrienne Demaree 12 Portland XC Club 6:41.9 20:48.6 66
111 #48 Andie Marusha 14 Bozeman XC Club 6:41.9 20:48.7 67
112 #116 Clarissa Modde 14 Hunterdon XC Club 6:42.0 20:48.8 68
113 #64 Michelle Kramer 14 Fort Collins XC 6:42.1 20:49.3 69
114 #67 Taylor Floming 13 Louisville XC Club 6:42.1 20:49.3 70
115 #11 Alexandra Rudin 11 Eden Praire XC Club 6:42.3 20:49.8 71
116 #33 Kelcy Welch 14 Carmel XC Club 6:42.6 20:50.7 72
117 #41 Shannon Mahoney 14 Portland XC Club 6:42.7 20:51.1 73
118 #9 Carlin Schulz 12 Eden Praire XC Club 6:43.1 20:52.3 74
119 #175 Aryn Foland 11 Manhattan Beach 6:43.3 20:53.0 75
120 #3 Alexandria Vaughan 12 Des Moines XC Club 6:43.4 20:53.2 76
121 #66 Mariel Fulton 11 Louisville XC Club 6:43.5 20:53.5 77
122 #68 Maddie Alm 11 Louisville XC Club 6:43.5 20:53.6 78
123 #32 Allison Jacobsen 12 Carmel XC Club 6:43.5 20:53.7 79
124 #117 Kristen Erickson 13 Hunterdon XC Club 6:43.6 20:54.0 80
125 #8 Laura Lawton 11 Eden Praire XC Club 6:43.9 20:54.7 81
126 #31 Gina Genco 14 Carmel XC Club 6:44.1 20:55.3 82
127 #24 Jessica Lincoln 14 Palatine XC Club 6:44.4 20:56.3 83
128 #4 Karissa Schweizer 14 Des Moines XC Club 6:44.6 20:57.0 84
129 #173 Jenay Jauregu 12 Newhall XC Club 6:44.6 20:57.0 85
130 #63 Maddie Staab 13 Fort Collins XC 6:45.5 20:59.6 86
131 #1 Vanessa Miller 13 Des Moines XC Club 6:45.8 21:00.8 87
132 #69 Kaitlyn Benner 14 Louisville XC Club 6:45.9 21:01.0 88
133 #107 Lauren Colberg 12 Western Cary XC 6:46.2 21:01.9 89
134 #161 Lauren Mordini 12 Wheaton South XC 6:46.4 21:02.5 90
135 #62 Taleah McClintock 13 Fort Collins XC 6:46.6 21:03.2 91
136 #87 Ashley Guidot 13 The Woodlands XC 6:46.7 21:03.6 92
137 #176 Shannon Hagedorn 11 Manhattan Beach 6:47.8 21:07.0 93
138 #75 Kailie Hartman 13 Southwest-4 6:47.9 21:07.1
139 #80 Sarah Roe 12 Carroll XC Club 6:48.2 21:08.2 94
140 #43 Genevieve Reaume 11 Portland XC Club 6:48.7 21:09.8 95
141 #179 Vivien Cherrette 12 Manhattan Beach 6:49.4 21:11.8 96
142 #85 Hannah Novelli 12 The Woodlands XC 6:49.4 21:12.0 97
143 #123 Summer Spillane 11 Champlain Valley 6:49.5 21:12.0 98
144 #20 Rebecca Sund 11 Palatine XC Club 6:49.5 21:12.0 99
145 #47 Katherine Stephens 13 Bozeman XC Club 6:49.5 21:12.1 100
146 #124 Aleksey Jordick 13 Champlain Valley 6:49.5 21:12.2 101
147 #151 Elizabeth Caldwell 13 Glen Head XC Club 6:50.0 21:13.7 102
148 #61 Kira Miklos 14 Fort Collins XC 6:50.4 21:15.1 103
149 #125 Adrienne Devita 12 Champlain Valley 6:50.5 21:15.3 104
150 #81 Morgan Baulier 13 Carroll XC Club 6:51.2 21:17.5 105
151 #126 Julienne Devita 13 Champlain Valley 6:51.5 21:18.5 106
152 #184 Shannon Emery 11 Temecula XC Club 6:52.0 21:20.1 107
153 #193 Shanoah Souza 12 La Costa XC Club 6:52.5 21:21.6 108
154 #50 Michelle Cline 12 Bozeman XC Club 6:52.6 21:21.8 109
155 #12 Brittney Platt 13 Eden Praire XC Club 6:52.6 21:21.9 110
156 #14 Andria Tauer 12 Eden Praire XC Club 6:52.9 21:22.8 111
157 #118 Shannon Carney 13 Hunterdon XC Club 6:53.1 21:23.4 112
158 #88 Margo Lyons 11 The Woodlands XC 6:53.1 21:23.4 113
159 #180 Jenna Tong 12 Manhattan Beach 6:53.3 21:23.9 114
160 #6 Nicole Svendsen 14 Des Moines XC Club 6:53.5 21:24.7 115
161 #101 Cara Bottorff 11 Wilmington XC Club 6:53.8 21:25.5 116
162 #83 Molly Tucker 14 Carroll XC Club 6:55.5 21:30.9 117
163 #89 Colleen Murray 11 The Woodlands XC 6:56.2 21:33.0 118
164 #163 Hope Schmelzle 13 Wheaton South XC 6:56.8 21:34.8 119
165 #185 Rachel Seymour 13 Temecula XC Club 6:57.3 21:36.3 120
166 #164 Clare Kelly 12 Wheaton South XC 6:58.3 21:39.4 121
167 #100 Julie Williams 13 Wilmington XC Club 6:58.5 21:40.2 122
168 #194 Janell Steigerwald 11 La Costa XC Club 6:59.1 21:41.9 123
169 #82 Felice Johnson 12 Carroll XC Club 6:59.6 21:43.6 124
170 #186 Alia Bales 11 Temecula XC Club 7:00.5 21:46.5 125
171 #119 Brigid McGill 13 Hunterdon XC Club 7:00.6 21:46.6 126
172 #5 Addie Schumacher 14 Des Moines XC Club 7:00.6 21:46.8 127
173 #2 Diane Hubbell 12 Des Moines XC Club 7:00.8 21:47.4 128
174 #152 Molly Reilly 14 Glen Head XC Club 7:02.3 21:52.0 129
175 #78 Rachel Harper 12 Carroll XC Club 7:02.6 21:52.9 130
176 #23 Ellen Smith 12 Palatine XC Club 7:03.1 21:54.4 131
177 #29 Lauren Kahre 12 Carmel XC Club 7:03.2 21:54.9 132
178 #166 Amy Long 12 Wheaton South XC 7:03.3 21:55.1 133
179 #90 Anna Lyons 11 The Woodlands XC 7:04.2 21:57.9 134
180 #121 Kathryn Hahn 11 Hunterdon XC Club 7:06.7 22:05.5 135
181 #86 Katie Willard 13 The Woodlands XC 7:07.1 22:06.8 136
182 #46 Brigid Bradshaw 14 Bozeman XC Club 7:07.7 22:08.6 137
183 #71 Lauren Elvig 11 Louisville XC Club 7:08.1 22:10.1 138
184 #120 Erin Seiffert 13 Hunterdon XC Club 7:08.4 22:11.0 139
185 #44 Olivia Artaiz 12 Portland XC Club 7:09.1 22:13.1 140
186 #127 Sophie Hess 12 Champlain Valley 7:09.2 22:13.3 141
187 #79 Courtney Kriegshaus 13 Carroll XC Club 7:09.2 22:13.4 142
188 #153 Danielle Muoio 11 Glen Head XC Club 7:10.1 22:16.1 143
189 #70 Mattie Stanford 11 Louisville XC Club 7:12.5 22:23.7 144
190 #178 Sarah Locke-Henders 13 Manhattan Beach 7:13.2 22:25.9 145
191 #165 Hana Lobsinger 12 Wheaton South XC 7:13.3 22:26.0 146
192 #108 Shewit Weldense 12 Western Cary XC 7:14.5 22:29.9 147
193 #187 Ashley Helbig 14 Temecula XC Club 7:16.0 22:34.6 148
194 #109 Charlotte Brown 12 Western Cary XC 7:17.0 22:37.7 149
195 #154 Emily Osman 11 Glen Head XC Club 7:17.6 22:39.4 150
196 #190 Gabriela Al-Shamma 11 La Costa XC Club 7:20.3 22:48.0 151
197 #128 Claire Trotter 12 Champlain Valley 7:22.4 22:54.5 152
198 #189 Kendall Shain 11 La Costa XC Club 7:25.0 23:02.6 153
199 #102 Lindsay Voltz 13 Wilmington XC Club 7:26.7 23:07.9 154

Team Scores
=================================================================================
Rank Team Total 1 2 3 4 5 *6 *7 *8 *9
=================================================================================
1 Manlius XC Club 27 1 2 4 8 12 53 64
Total Time: 1:34:52.00
Average: 18:58.40
2 Kinetic XC Club 104 15 20 21 22 26 28 54
Total Time: 1:39:46.40
Average: 19:57.28
3 Newhall XC Club 117 10 11 18 35 43 50 85
Total Time: 1:39:30.70
Average: 19:54.14
4 Portland XC Club 227 7 36 45 66 73 95 140
Total Time: 1:41:37.90
Average: 20:19.58
5 Wilmington XC Club 244 3 33 41 51 116 122 154
Total Time: 1:41:27.10
Average: 20:17.42
6 Fort Collins XC Club 247 9 25 58 69 86 91 103
Total Time: 1:41:51.90
Average: 20:22.38
7 Carmel XC Club 260 17 44 48 72 79 82 132
Total Time: 1:42:44.30
Average: 20:32.86
8 Palatine XC Club 262 27 39 52 61 83 99 131
Total Time: 1:42:43.70
Average: 20:32.74
9 Glen Head XC Club 267 6 14 16 102 129 143 150
Total Time: 1:41:48.50
Average: 20:21.70
10 Western Cary XC Club 294 42 47 57 59 89 147 149
Total Time: 1:43:20.60
Average: 20:40.12
11 Bozeman XC Club 297 5 60 65 67 100 109 137
Total Time: 1:42:24.80
Average: 20:28.96
12 Eden Praire XC Club 315 34 55 71 74 81 110 111
Total Time: 1:43:29.30
Average: 20:41.86
13 Temecula XC Club 325 13 29 56 107 120 125 148
Total Time: 1:43:34.40
Average: 20:42.88
14 Manhattan Beach XC Club 326 30 32 75 93 96 114 145
Total Time: 1:43:34.90
Average: 20:42.98
15 Louisville XC Club 353 40 70 77 78 88 138 144
Total Time: 1:43:58.50
Average: 20:47.70
16 La Costa XC Club 354 24 37 62 108 123 151 153
Total Time: 1:44:04.40
Average: 20:48.88
17 Des Moines XC Club 385 23 76 84 87 115 127 128
Total Time: 1:44:14.61
Average: 20:50.92
18 Wheaton South XC Club 399 31 38 90 119 121 133 146
Total Time: 1:44:47.90
Average: 20:57.58
19 The Woodlands XC Club 439 19 92 97 113 118 134 136
Total Time: 1:45:08.30
Average: 21:01.66
20 Hunterdon XC Club 449 63 68 80 112 126 135 139
Total Time: 1:45:38.60
Average: 21:07.72
21 Champlain Valley XC Club 455 46 98 101 104 106 141 152
Total Time: 1:45:30.10
Average: 21:06.02
22 Carroll XC Club 489 49 94 105 117 124 130 142
Total Time: 1:46:15.20
Average: 21:15.04




Unofficial Place / Bib / Last Name / First Name / Affiliation / Unofficial Time / Unofficial Time Gap / Splits



3 1 1 Girls         10:26:13.7160      
1 91   Johnson Rachel South-1   18:18.56 2:41.63 (2:41.63),6:29.95 (3:48.32),10:45.84 (4:15.90),14:34.57 (3:48.73),18:18.79 (3:44.23)   F 3,
2 136   Rutledge Christie Manlius XC Club   2.8405 2:39.68 (2:39.68),6:29.69 (3:50.01),10:45.42 (4:15.74),14:34.61 (3:49.19),18:21.63 (3:47.03)   F 3,
3 54   Neale Amy-Eloise Northwest-2   27.3647 2:44.07 (2:44.07),6:40.54 (3:56.47),11:10.24 (4:29.71),15:06.89 (3:56.65),18:49.06 (3:42.18)   F 3,
4 135   Sischo Katie Manlius XC Club   0.8972 2:43.74 (2:43.74),6:38.08 (3:54.34),10:59.15 (4:21.08),15:00.66 (4:01.51),18:50.11 (3:49.46)   F 3,
5 96   Pierce Haley Wilmington XC Club   0.7305 2:40.37 (2:40.37),6:31.44 (3:51.07),10:55.45 (4:24.02),15:00.63 (4:05.18),18:50.59 (3:49.97)   F 3,
6 134   Fanning Jillian Manlius XC Club   1.2336 2:42.29 (2:42.29),6:35.53 (3:53.24),10:59.09 (4:23.57),15:00.52 (4:01.43),18:52.00 (3:51.49)   F 3,
7 157   Tuite Shaylyn New York-3   0.3924 2:43.49 (2:43.49),6:36.09 (3:52.60),11:06.89 (4:30.81),15:06.51 (3:59.62),18:52.22 (3:45.72)   F 3,
8 53   Knight Katie Northwest-1   1.2220 2:44.05 (2:44.05),6:40.19 (3:56.14),11:07.44 (4:27.26),15:04.55 (3:57.11),18:53.48 (3:48.94)   F 3,
9 52   Hardin Caroline Bozeman XC Club   0.1891 2:49.74 (2:49.74),6:46.25 (3:56.51),11:11.29 (4:25.05),15:07.22 (3:55.93),18:53.71 (3:46.50)   F 3,
10 155   Winslow Brittany New York-1   0.7222 2:43.03 (2:43.03),6:35.92 (3:52.89),11:03.35 (4:27.44),15:04.15 (4:00.80),18:54.43 (3:50.29)   F 3,
11 148   Nadel Samantha Glen Head XC Club   7.4795 2:43.32 (2:43.32),6:36.31 (3:52.99),11:02.16 (4:25.86),15:05.22 (4:03.06),19:01.99 (3:56.78)   F 3,
12 34   Beattie Kayla Midwest-1   6.9072 2:42.94 (2:42.94),6:37.35 (3:54.41),11:04.70 (4:27.36),15:11.32 (4:06.62),19:08.84 (3:57.53)   F 3,
13 199   Chapus Camille California-5   2.1566 2:44.53 (2:44.53),6:40.29 (3:55.76),11:14.21 (4:33.93),15:17.69 (4:03.48),19:10.96 (3:53.28)   F 3,
14 15   Woodward Allison Heartland-1   0.7464 2:41.55 (2:41.55),6:31.46 (3:49.91),10:59.32 (4:27.87),15:04.14 (4:04.82),19:11.69 (4:07.56)   F 3,
15 40   Maag Annmarie Portland XC Club   0.6322 2:45.56 (2:45.56),6:43.51 (3:57.95),11:11.14 (4:27.64),15:15.17 (4:04.03),19:12.34 (3:57.18)   F 3,
16 137   Martin Heather Manlius XC Club   0.1266 2:47.34 (2:47.34),6:45.98 (3:58.64),11:18.45 (4:32.48),15:21.15 (4:02.70),19:12.60 (3:51.46)   F 3,
17 58   Hooker Erin Fort Collins XC Club   4.6432 2:49.10 (2:49.10),6:44.48 (3:55.38),11:15.24 (4:30.77),15:18.91 (4:03.67),19:17.22 (3:58.32)   F 3,
18 38   Wolfe Brooke Midwest-5   1.9333 2:49.17 (2:49.17),6:44.76 (3:55.59),11:11.96 (4:27.21),15:17.20 (4:05.24),19:19.23 (4:02.04)   F 3,
19 35   Nightingale Samantha Midwest-2   1.1154 2:45.55 (2:45.55),6:45.16 (3:59.61),11:21.23 (4:36.08),15:24.45 (4:03.22),19:20.22 (3:55.78)   F 3,
20 156   Margey Kelsey New York-2   4.0984 2:42.39 (2:42.39),6:36.09 (3:53.70),11:04.32 (4:28.24),15:05.01 (4:00.69),19:24.48 (4:19.48)   F 3,
21 167   Mahoney Kaylin Newhall XC Club   1.4869 2:47.30 (2:47.30),6:45.38 (3:58.08),11:19.66 (4:34.29),15:27.91 (4:08.25),19:25.80 (3:57.90)   F 3,
22 169   Bulder Stephanie Newhall XC Club   0.0408 2:47.58 (2:47.58),6:45.94 (3:58.36),11:19.98 (4:34.05),15:27.95 (4:07.97),19:25.88 (3:57.94)   F 3,
23 132   Malone Margo Northeast-4   0.0900 2:43.01 (2:43.01),6:41.68 (3:58.67),11:19.04 (4:37.37),15:28.67 (4:09.63),19:25.87 (3:57.21)   F 3,
24 56   Nist Emily Northwest-4   1.0612 2:45.82 (2:45.82),6:48.92 (4:03.10),11:21.28 (4:32.37),15:26.95 (4:05.67),19:27.03 (4:00.09)   F 3,
25 129   McNamara Molly Northeast-1   1.6610 2:45.87 (2:45.87),6:44.66 (3:58.79),11:19.97 (4:35.32),15:30.90 (4:10.93),19:28.72 (3:57.83)   F 3,
26 110   LeHardy Annie Southeast-1   0.0866 2:44.45 (2:44.45),6:44.04 (3:59.59),11:19.42 (4:35.39),15:30.70 (4:11.28),19:28.79 (3:58.10)   F 3,
27 37   Hamilton Carly Midwest-4   5.6552 2:46.64 (2:46.64),6:46.08 (3:59.44),11:18.29 (4:32.22),15:27.62 (4:09.33),19:34.47 (4:06.86)   F 3,
28 16   Houlihan Shelby Heartland-2   1.5269 2:41.99 (2:41.99),6:35.81 (3:53.82),11:07.77 (4:31.97),15:23.11 (4:15.34),19:36.09 (4:12.99)   F 3,
29 138   Chapman Courtney Manlius XC Club   1.3394 2:46.47 (2:46.47),6:45.73 (3:59.26),11:20.96 (4:35.24),15:33.32 (4:12.36),19:37.22 (4:03.91)   F 3,
30 18   Gorman Tamara Heartland-4   0.9622 2:47.62 (2:47.62),6:45.65 (3:58.03),11:20.25 (4:34.61),15:28.28 (4:08.03),19:38.21 (4:09.94)   F 3,
31 133   Jones Samantha Northeast-5   4.6314 2:46.66 (2:46.66),6:46.46 (3:59.80),11:26.32 (4:39.87),15:38.77 (4:12.45),19:42.93 (4:04.17)   F 3,
32 181   Hilton Jessica Temecula XC Club   4.6398 2:53.56 (2:53.56),6:58.77 (4:05.21),11:39.91 (4:41.15),15:53.17 (4:13.26),19:47.59 (3:54.43)   F 3,
33 36   Thomas Michelle Midwest-3   0.6256 2:45.55 (2:45.55),6:51.26 (4:05.71),11:29.91 (4:38.66),15:40.76 (4:10.85),19:48.24 (4:07.49)   F 3,
34 150   Nerud Brianna Glen Head XC Club   0.8505 2:59.33 (2:59.33),7:09.18 (4:09.85),11:44.07 (4:34.90),15:53.45 (4:09.38),19:48.91 (3:55.47)   F 3,
35 146   Driscoll Taylor Kinetic XC Club   1.0420 2:52.50 (2:52.50),6:56.78 (4:04.28),11:31.11 (4:34.34),15:41.36 (4:10.25),19:50.04 (4:08.69)   F 3,
36 17   Piepenburg Jamie Heartland-3   0.7705 2:50.70 (2:50.70),6:58.30 (4:07.60),11:36.17 (4:37.88),15:47.99 (4:11.82),19:50.84 (4:02.86)   F 3,
37 198   Santisteban Kelsey California-4   0.2550 2:49.09 (2:49.09),6:57.80 (4:08.71),11:35.65 (4:37.86),15:47.56 (4:11.91),19:50.96 (4:03.41)   F 3,
38 112   Cutright Haley Southeast-3   0.3748 2:49.76 (2:49.76),6:55.76 (4:06.00),11:36.93 (4:41.18),15:52.09 (4:15.16),19:51.32 (3:59.24)   F 3,
39 149   Donohue Jessica Glen Head XC Club   1.2712 2:55.33 (2:55.33),6:56.21 (4:00.88),11:34.34 (4:38.14),15:44.42 (4:10.08),19:52.58 (4:08.17)   F 3,
40 130   Crevoiserat Lindsay Northeast-2   1.8325 2:42.86 (2:42.86),6:45.57 (4:02.71),11:29.29 (4:43.73),15:45.59 (4:16.30),19:54.56 (4:08.98)   F 3,
41 111   Olivere Lindsay Southeast-2   0.8630 2:46.02 (2:46.02),6:47.39 (4:01.37),11:30.27 (4:42.89),15:45.74 (4:15.47),19:55.54 (4:09.81)   F 3,
42 30   Bennett Sarah Carmel XC Club   0.7880 2:59.89 (2:59.89),7:08.17 (4:08.28),11:45.59 (4:37.43),15:54.01 (4:08.42),19:56.19 (4:02.19)   F 3,
43 171   Hernando Danielle Newhall XC Club   0.2583 2:49.35 (2:49.35),6:55.66 (4:06.31),11:38.50 (4:42.85),15:53.66 (4:15.16),19:56.49 (4:02.84)   F 3,
44 76   Kientz Kristen Southwest-5   0.1349 2:53.51 (2:53.51),7:02.74 (4:09.23),11:40.60 (4:37.87),15:52.22 (4:11.62),19:56.53 (4:04.32)   F 3,
45 84   McLellan Madi The Woodlands XC Club   0.0092 2:49.63 (2:49.63),6:56.28 (4:06.65),11:36.34 (4:40.07),15:49.72 (4:13.38),19:56.51 (4:06.80)   F 3,
46 141   Borroughs Amanda Kinetic XC Club   0.6797 2:48.04 (2:48.04),6:53.13 (4:05.09),11:34.36 (4:41.24),15:48.05 (4:13.69),19:57.44 (4:09.40)   F 3,
47 142   Carr Madison Kinetic XC Club   0.4174 2:53.49 (2:53.49),6:55.42 (4:01.93),11:37.53 (4:42.12),15:47.15 (4:09.62),19:57.64 (4:10.50)   F 3,
48 143   King Sydney Kinetic XC Club   0.2757 2:50.65 (2:50.65),6:58.72 (4:08.07),11:35.95 (4:37.24),15:48.61 (4:12.66),19:57.99 (4:09.39)   F 3,
49 196   Mehra Rebecca California-2   0.4556 2:43.65 (2:43.65),6:53.93 (4:10.28),11:39.79 (4:45.87),15:57.82 (4:18.03),19:58.35 (4:00.54)   F 3,
50 114   Godfrey Tenley Southeast-5   0.1908 2:58.20 (2:58.20),7:08.12 (4:09.92),11:46.26 (4:38.15),15:55.59 (4:09.33),19:58.63 (4:03.05)   F 3,
51 7   Berard Tenelle Des Moines XC Club   0.6239 2:52.14 (2:52.14),6:55.96 (4:03.82),11:37.59 (4:41.64),15:50.36 (4:12.77),19:59.25 (4:08.90)   F 3,
52 192   Abrahamson Emma La Costa XC Club   1.6618 2:53.70 (2:53.70),6:56.80 (4:03.10),11:37.98 (4:41.19),15:49.44 (4:11.46),20:00.98 (4:11.55)   F 3,
53 158   Carey Anne New York-4   2.6856 2:52.80 (2:52.80),6:59.68 (4:06.88),11:41.51 (4:41.84),15:56.48 (4:14.97),20:03.48 (4:07.01)   F 3,
54 59   Witczak Marci Fort Collins XC Club   1.1395 2:52.42 (2:52.42),6:58.42 (4:06.00),11:41.96 (4:43.55),15:55.93 (4:13.97),20:04.62 (4:08.70)   F 3,
55 147   Hollowood Keelin Kinetic XC Club   0.2041 2:48.53 (2:48.53),6:57.84 (4:09.31),11:43.01 (4:45.18),16:00.03 (4:17.02),20:05.04 (4:05.02)   F 3,
56 113   Jumper Hannah Southeast-4   0.3190 2:42.60 (2:42.60),6:48.06 (4:05.46),11:33.31 (4:45.26),15:51.39 (4:18.08),20:05.43 (4:14.05)   F 3,
57 21   Brown Courtney Palatine XC Club   1.1754 2:47.66 (2:47.66),6:54.35 (4:06.69),11:37.45 (4:43.11),15:54.38 (4:16.93),20:06.49 (4:12.12)   F 3,
58 145   Smith Estela Kinetic XC Club   1.0821 2:53.78 (2:53.78),6:59.79 (4:06.01),11:41.35 (4:41.57),15:57.00 (4:15.65),20:07.57 (4:10.58)   F 3,
59 195   Bricks Macy California-1   1.1412 2:47.01 (2:47.01),6:51.77 (4:04.76),11:34.80 (4:43.04),15:52.56 (4:17.76),20:08.81 (4:16.26)   F 3,
60 73   Martinez Shea Southwest-2   0.6913 2:46.85 (2:46.85),6:56.90 (4:10.05),11:42.56 (4:45.67),15:59.31 (4:16.75),20:09.34 (4:10.04)   F 3,
61 182   Johnson Katie Temecula XC Club   1.7169 2:53.82 (2:53.82),7:01.69 (4:07.87),11:42.85 (4:41.17),15:56.98 (4:14.13),20:11.05 (4:14.08)   F 3,
62 177   Sugimoto Kelli Manhattan Beach XC Club   0.5098 2:56.66 (2:56.66),7:04.99 (4:08.33),11:52.36 (4:47.38),16:08.60 (4:16.24),20:11.59 (4:03.00)   F 3,
63 160   Kightlinger Mikayla Wheaton South XC Club   0.2224 2:52.67 (2:52.67),7:00.21 (4:07.54),11:43.61 (4:43.41),16:01.24 (4:17.63),20:11.87 (4:10.64)   F 3,
64 19   Hauter Maria Heartland-5   0.1891 2:48.08 (2:48.08),6:57.68 (4:09.60),11:41.45 (4:43.78),16:00.64 (4:19.19),20:12.12 (4:11.49)   F 3,
65 174   Pio Savannah Manhattan Beach XC Club   0.1424 2:47.39 (2:47.39),6:57.66 (4:10.27),11:43.62 (4:45.97),16:04.21 (4:20.59),20:12.30 (4:08.10)   F 3,
66 97   Blackwell Lauren Wilmington XC Club   0.2399 2:50.93 (2:50.93),7:00.28 (4:09.35),11:46.27 (4:46.00),16:03.46 (4:17.19),20:12.42 (4:08.97)   F 3,
67 10   Platner Megan Eden Praire XC Club   0.6197 2:56.97 (2:56.97),7:00.73 (4:03.76),11:42.31 (4:41.59),16:01.00 (4:18.69),20:13.12 (4:12.13)   F 3,
68 95   Montoya Maggie South-5   0.3041 2:53.15 (2:53.15),6:57.29 (4:04.14),11:38.10 (4:40.82),16:00.70 (4:22.60),20:13.16 (4:12.47)   F 3,
69 72   Fakler Sarah Southwest-1   1.0204 3:02.06 (3:02.06),7:07.20 (4:05.14),11:46.07 (4:38.88),16:02.61 (4:16.54),20:14.38 (4:11.78)   F 3,
70 170   Kado Merissa Newhall XC Club   0.0042 3:01.50 (3:01.50),7:12.03 (4:10.53),11:52.76 (4:40.74),16:03.78 (4:11.02),20:14.24 (4:10.47)   F 3,
71 42   Joseph Amira Portland XC Club   0.7297 2:54.93 (2:54.93),7:08.22 (4:13.29),11:49.37 (4:41.16),16:05.98 (4:16.61),20:15.16 (4:09.19)   F 3,
72 191   Lawson Kelly La Costa XC Club   0.4456 2:51.71 (2:51.71),6:58.03 (4:06.32),11:41.05 (4:43.03),16:01.46 (4:20.41),20:15.55 (4:14.10)   F 3,
73 92   Jochen Karis South-2   3.1896 3:01.56 (3:01.56),7:13.03 (4:11.47),11:53.48 (4:40.46),16:07.53 (4:14.05),20:18.71 (4:11.19)   F 3,
74 162   Kiple McKenna Wheaton South XC Club   1.3344 2:52.61 (2:52.61),7:00.15 (4:07.54),11:46.56 (4:46.42),16:08.47 (4:21.91),20:19.99 (4:11.53)   F 3,
75 25   McIntosh Sarah Palatine XC Club   0.3632 2:54.95 (2:54.95),7:06.55 (4:11.60),11:51.03 (4:44.49),16:08.81 (4:17.78),20:20.47 (4:11.67)   F 3,
76 131   Miller Julianna Northeast-3   0.4457 2:53.34 (2:53.34),7:05.48 (4:12.14),11:47.34 (4:41.87),16:05.66 (4:18.32),20:20.83 (4:15.18)   F 3,
77 65   Green Claire Louisville XC Club   0.5531 2:53.67 (2:53.67),7:03.59 (4:09.92),11:48.72 (4:45.14),16:08.92 (4:20.20),20:21.29 (4:12.38)   F 3,
78 159   McCormick Meghan New York-5   0.3707 2:53.75 (2:53.75),7:04.24 (4:10.49),11:50.76 (4:46.53),16:11.80 (4:21.04),20:21.94 (4:10.15)   F 3,
79 98   Hanrahan Kieran Wilmington XC Club   0.4990 2:54.63 (2:54.63),7:02.24 (4:07.61),11:46.56 (4:44.33),16:07.32 (4:20.76),20:22.23 (4:14.92)   F 3,
80 104   Rossabi Jessica Western Cary XC Club   0.3965 2:56.61 (2:56.61),7:06.51 (4:09.90),11:51.99 (4:45.49),16:09.46 (4:17.47),20:22.64 (4:13.19)   F 3,
81 74   Everson Hannah Southwest-3   2.5481 3:02.07 (3:02.07),7:12.54 (4:10.47),11:58.84 (4:46.31),16:16.60 (4:17.76),20:25.30 (4:08.71)   F 3,
82 93   Montgomery Hillary South-3   1.7284 3:03.18 (3:03.18),7:09.51 (4:06.33),11:52.65 (4:43.15),16:09.56 (4:16.91),20:27.07 (4:17.52)   F 3,
83 55   Lystad Tansey Northwest-3   2.6190 2:53.18 (2:53.18),7:01.06 (4:07.88),11:54.56 (4:53.51),16:16.11 (4:21.55),20:29.53 (4:13.43)   F 3,
84 168   Frankian Karis Newhall XC Club   0.3082 3:01.53 (3:01.53),7:10.81 (4:09.28),11:58.81 (4:48.01),16:17.10 (4:18.29),20:29.68 (4:12.59)   F 3,
85 94   Roper Cali South-4   0.3499 2:55.66 (2:55.66),7:09.44 (4:13.78),11:55.70 (4:46.27),16:17.72 (4:22.02),20:30.21 (4:12.50)   F 3,
86 27   Chitwood Alexandra Carmel XC Club   0.1857 3:02.58 (3:02.58),7:10.97 (4:08.39),11:53.99 (4:43.03),16:13.29 (4:19.30),20:30.29 (4:17.01)   F 3,
87 39   Schutte Payton Portland XC Club   1.3045 2:55.56 (2:55.56),7:08.70 (4:13.14),12:00.26 (4:51.57),16:20.91 (4:20.65),20:31.54 (4:10.64)   F 3,
88 122   Spillane Taylor Champlain Valley XC Club   0.6847 3:02.61 (3:02.61),7:13.14 (4:10.53),11:58.75 (4:45.62),16:18.58 (4:19.83),20:32.40 (4:13.83)   F 3,
89 103   Amatori Erica Western Cary XC Club   1.4686 2:57.45 (2:57.45),7:06.60 (4:09.15),11:55.16 (4:48.57),16:18.22 (4:23.06),20:33.82 (4:15.61)   F 3,
90 28   Wellman Renee Carmel XC Club   0.4207 3:04.54 (3:04.54),7:14.46 (4:09.92),12:00.92 (4:46.47),16:19.30 (4:18.38),20:34.23 (4:14.94)   F 3,
91 77   Chapin Shelby Carroll XC Club   1.0370 2:51.36 (2:51.36),7:03.05 (4:11.69),11:51.77 (4:48.73),16:16.61 (4:24.84),20:35.48 (4:18.88)   F 3,
92 172   Hampton Alexandra Newhall XC Club   2.1217 2:59.48 (2:59.48),7:15.32 (4:15.84),12:06.32 (4:51.01),16:27.51 (4:21.19),20:37.54 (4:10.04)   F 3,
93 99   Anderson Reagan Wilmington XC Club   0.0316 2:49.64 (2:49.64),7:07.62 (4:17.98),12:00.31 (4:52.70),16:25.64 (4:25.33),20:37.24 (4:11.61)   F 3,
94 22   Wasowicz Tess Palatine XC Club   0.1350 2:50.89 (2:50.89),7:04.29 (4:13.40),11:57.01 (4:52.73),16:22.55 (4:25.54),20:37.63 (4:15.09)   F 3,
95 197   Peterson Jessie California-3   1.1653 2:54.72 (2:54.72),7:08.71 (4:13.99),11:56.20 (4:47.50),16:25.98 (4:29.78),20:38.86 (4:12.89)   F 3,
96 140   McGurrin Emily Manlius XC Club   0.6597 2:50.39 (2:50.39),7:07.05 (4:16.66),12:01.31 (4:54.27),16:24.68 (4:23.37),20:39.43 (4:14.76)   F 3,
97 144   Pezzulo Molly Kinetic XC Club   0.0392 2:52.16 (2:52.16),7:02.03 (4:09.87),11:54.00 (4:51.98),16:18.38 (4:24.38),20:39.54 (4:21.17)   F 3,
98 13   Jeter Hannah Eden Praire XC Club   0.6298 2:57.40 (2:57.40),7:11.38 (4:13.98),11:58.72 (4:47.35),16:18.43 (4:19.71),20:39.98 (4:21.56)   F 3,
99 183   Mandel Pauline Temecula XC Club   0.3631 2:55.61 (2:55.61),7:11.35 (4:15.74),12:01.57 (4:50.23),16:24.08 (4:22.51),20:40.53 (4:16.46)   F 3,
100 105   Enright Olivia Western Cary XC Club   0.5573 2:56.35 (2:56.35),7:06.48 (4:10.13),11:50.84 (4:44.37),16:18.13 (4:27.29),20:41.10 (4:22.98)   F 3,
101 60   Oweimrin Audrey Fort Collins XC Club   0.9963 2:56.56 (2:56.56),7:10.35 (4:13.79),12:06.69 (4:56.35),16:28.56 (4:21.87),20:42.00 (4:13.45)   F 3,
102 106   McDonnell Maura Western Cary XC Club   0.4815 2:59.77 (2:59.77),7:15.96 (4:16.19),12:09.05 (4:53.10),16:29.43 (4:20.38),20:42.62 (4:13.20)   F 3,
103 51   Turner Heidi Bozeman XC Club   0.7680 2:57.88 (2:57.88),7:15.20 (4:17.32),12:15.12 (4:59.93),16:34.44 (4:19.32),20:43.32 (4:08.89)   F 3,
104 26   Schulte Emily Palatine XC Club   0.9754 3:00.91 (3:00.91),7:16.64 (4:15.73),12:06.43 (4:49.80),16:29.96 (4:23.53),20:44.23 (4:14.28)   F 3,
105 188   Abrahamson Ellie La Costa XC Club   1.2378 3:00.94 (3:00.94),7:11.57 (4:10.63),11:58.63 (4:47.07),16:24.80 (4:26.17),20:45.55 (4:20.76)   F 3,
106 115   Cicitta Nisa Hunterdon XC Club   0.6006 3:05.73 (3:05.73),7:24.18 (4:18.45),12:15.18 (4:51.01),16:29.86 (4:14.68),20:46.20 (4:16.35)   F 3,
107 139   Brislin Katie Manlius XC Club   1.0554 2:47.23 (2:47.23),7:00.49 (4:13.26),11:54.38 (4:53.90),16:23.49 (4:29.11),20:47.57 (4:24.09)   F 3,
108 49   Keith Katherine Bozeman XC Club   0.8089 3:09.72 (3:09.72),7:27.27 (4:17.55),12:14.98 (4:47.72),16:32.28 (4:17.30),20:48.09 (4:15.82)   F 3,
109 57   Clark Erin Northwest-5   0.1974 2:55.27 (2:55.27),7:10.51 (4:15.24),12:02.63 (4:52.13),16:30.58 (4:27.95),20:48.32 (4:17.75)   F 3,
110 45   Demaree Adrienne Portland XC Club   0.7663 2:56.91 (2:56.91),7:14.96 (4:18.05),12:07.83 (4:52.88),16:33.54 (4:25.71),20:48.95 (4:15.42)   F 3,
111 48   Marusha Andie Bozeman XC Club   0.0800 3:09.90 (3:09.90),7:32.68 (4:22.78),12:29.84 (4:57.17),16:46.53 (4:16.69),20:48.79 (4:02.27)   F 3,
112 116   Modde Clarissa Hunterdon XC Club   0.1716 2:58.81 (2:58.81),7:15.45 (4:16.64),12:07.24 (4:51.80),16:31.86 (4:24.62),20:49.17 (4:17.32)   F 3,
113 64   Kramer Michelle Fort Collins XC Club   0.4340 2:55.18 (2:55.18),7:13.96 (4:18.78),12:07.64 (4:53.69),16:32.62 (4:24.98),20:49.52 (4:16.91)   F 3,
114 67   Floming Taylor Louisville XC Club   0.0658 3:02.77 (3:02.77),7:18.55 (4:15.78),12:14.17 (4:55.63),16:35.46 (4:21.29),20:49.65 (4:14.20)   F 3,
115 11   Rudin Alexandra Eden Praire XC Club   0.4765 3:01.30 (3:01.30),7:18.07 (4:16.77),12:09.18 (4:51.12),16:28.87 (4:19.69),20:50.00 (4:21.14)   F 3,
116 33   Welch Kelcy Carmel XC Club   0.9213 3:04.96 (3:04.96),7:21.44 (4:16.48),12:11.50 (4:50.07),16:30.78 (4:19.28),20:50.90 (4:20.13)   F 3,
117 41   Mahoney Shannon Portland XC Club   0.3390 2:58.46 (2:58.46),7:09.59 (4:11.13),12:07.04 (4:57.46),16:34.21 (4:27.17),20:51.51 (4:17.31)   F 3,
118 9   Schulz Carlin Eden Praire XC Club   1.2437 3:02.60 (3:02.60),7:20.22 (4:17.62),12:09.23 (4:49.02),16:32.50 (4:23.27),20:52.69 (4:20.20)   F 3,
119 175   Foland Aryn Manhattan Beach XC Club   0.6622 2:57.27 (2:57.27),7:14.45 (4:17.18),12:08.37 (4:53.93),16:35.53 (4:27.16),20:53.43 (4:17.91)   F 3,
120 3   Vaughan Alexandria Des Moines XC Club   0.2049 3:06.20 (3:06.20),7:23.65 (4:17.45),12:21.13 (4:57.49),16:44.00 (4:22.87),20:53.52 (4:09.53)   F 3,
121 66   Fulton Mariel Louisville XC Club   0.3699 3:05.74 (3:05.74),7:25.20 (4:19.46),12:17.34 (4:52.15),16:39.66 (4:22.32),20:53.92 (4:14.27)   F 3,
122 68   Alm Maddie Louisville XC Club   0.0450 3:05.67 (3:05.67),7:25.97 (4:20.30),12:18.56 (4:52.60),16:42.62 (4:24.06),20:54.04 (4:11.43)   F 3,
123 32   Jacobsen Allison Carmel XC Club   0.0883 3:04.35 (3:04.35),7:19.92 (4:15.57),12:12.85 (4:52.94),16:36.56 (4:23.71),20:53.88 (4:17.33)   F 3,
124 117   Erickson Kristen Hunterdon XC Club   0.2865 2:59.51 (2:59.51),7:13.16 (4:13.65),12:02.65 (4:49.50),16:31.07 (4:28.42),20:54.23 (4:23.17)   F 3,
125 8   Lawton Laura Eden Praire XC Club   0.7605 3:01.99 (3:01.99),7:19.23 (4:17.24),12:08.97 (4:49.75),16:36.45 (4:27.48),20:55.07 (4:18.63)   F 3,
126 31   Genco Gina Carmel XC Club   0.5923 3:05.63 (3:05.63),7:21.64 (4:16.01),12:13.30 (4:51.67),16:38.29 (4:24.99),20:55.72 (4:17.44)   F 3,
127 24   Lincoln Jessica Palatine XC Club   1.0012 3:01.24 (3:01.24),7:16.78 (4:15.54),12:13.87 (4:57.10),16:39.39 (4:25.52),20:56.73 (4:17.35)   F 3,
128 173   Jauregu Jenay Newhall XC Club   0.6873 3:07.59 (3:07.59),7:28.07 (4:20.48),12:20.83 (4:52.77),16:41.71 (4:20.88),20:57.20 (4:15.50)   F 3,
129 4   Schweizer Karissa Des Moines XC Club   0.0058 3:00.90 (3:00.90),7:14.56 (4:13.66),12:11.24 (4:56.69),16:31.67 (4:20.43),20:57.30 (4:25.64)   F 3,
130 63   Staab Maddie Fort Collins XC Club   2.6181 2:55.17 (2:55.17),7:10.93 (4:15.76),12:06.93 (4:56.01),16:36.52 (4:29.59),20:59.97 (4:23.46)   F 3,
131 1   Miller Vanessa Des Moines XC Club   1.1454 3:03.10 (3:03.10),7:22.84 (4:19.74),12:19.02 (4:56.19),16:40.47 (4:21.45),21:00.99 (4:20.53)   F 3,
132 69   Benner Kaitlyn Louisville XC Club   0.2107 3:05.92 (3:05.92),7:26.02 (4:20.10),12:18.66 (4:52.65),16:42.94 (4:24.28),21:01.30 (4:18.37)   F 3,
133 107   Colberg Lauren Western Cary XC Club   0.9438 2:59.85 (2:59.85),7:15.36 (4:15.51),12:10.32 (4:54.97),16:39.22 (4:28.90),21:02.10 (4:22.89)   F 3,
134 161   Mordini Lauren Wheaton South XC Club   0.5448 2:54.61 (2:54.61),7:16.41 (4:21.80),12:10.59 (4:54.19),16:42.16 (4:31.57),21:02.76 (4:20.61)   F 3,
135 62   McClintock Taleah Fort Collins XC Club   0.7139 2:55.45 (2:55.45),7:12.54 (4:17.09),12:10.06 (4:57.53),16:40.20 (4:30.14),21:03.35 (4:23.16)   F 3,
136 87   Guidot Ashley The Woodlands XC Club   0.4356 2:57.70 (2:57.70),7:09.85 (4:12.15),12:09.28 (4:59.44),16:37.01 (4:27.73),21:03.99 (4:26.99)   F 3,
137 176   Hagedorn Shannon Manhattan Beach XC Club   3.3428 3:05.81 (3:05.81),7:21.62 (4:15.81),12:20.74 (4:59.13),16:50.38 (4:29.64),21:07.17 (4:16.80)   F 3,
138 75   Hartman Kailie Southwest-4   0.1775 2:48.23 (2:48.23),7:05.67 (4:17.44),12:13.84 (5:08.18),16:47.55 (4:33.71),21:07.57 (4:20.03)   F 3,
139 80   Roe Sarah Carroll XC Club   1.0795 3:00.85 (3:00.85),7:14.28 (4:13.43),12:09.80 (4:55.53),16:37.65 (4:27.85),21:08.72 (4:31.08)   F 3,
140 43   Reaume Genevieve Portland XC Club   1.5286 3:06.07 (3:06.07),7:26.42 (4:20.35),12:24.83 (4:58.42),16:55.12 (4:30.29),21:10.35 (4:15.24)   F 3,
141 179   Cherrette Vivien Manhattan Beach XC Club   2.0250 3:05.37 (3:05.37),7:25.60 (4:20.23),12:23.47 (4:57.88),16:52.09 (4:28.62),21:12.19 (4:20.11)   F 3,
142 85   Novelli Hannah The Woodlands XC Club   0.2082 2:59.36 (2:59.36),7:24.61 (4:25.25),12:25.88 (5:01.28),16:55.65 (4:29.77),21:12.31 (4:16.67)   F 3,
143 123   Spillane Summer Champlain Valley XC Club   0.0325 3:02.75 (3:02.75),7:14.77 (4:12.02),12:09.33 (4:54.57),16:40.43 (4:31.10),21:12.57 (4:32.15)   F 3,
144 20   Sund Rebecca Palatine XC Club   0.0117 3:01.18 (3:01.18),7:20.56 (4:19.38),12:15.75 (4:55.20),16:46.55 (4:30.80),21:12.39 (4:25.85)   F 3,
145 47   Stephens Katherine Bozeman XC Club   0.0816 3:12.33 (3:12.33),7:37.22 (4:24.89),12:35.36 (4:58.15),17:00.76 (4:25.40),21:12.23 (4:11.48)   F 3,
146 124   Jordick Aleksey Champlain Valley XC Club   0.1208 3:04.46 (3:04.46),7:21.53 (4:17.07),12:16.86 (4:55.34),16:45.87 (4:29.01),21:12.38 (4:26.52)   F 3,
147 151   Caldwell Elizabeth Glen Head XC Club   1.4761 3:04.15 (3:04.15),7:20.07 (4:15.92),12:16.36 (4:56.30),16:48.24 (4:31.88),21:13.96 (4:25.73)   F 3,
148 61   Miklos Kira Fort Collins XC Club   1.3661 2:55.71 (2:55.71),7:16.54 (4:20.83),12:15.44 (4:58.91),16:55.66 (4:40.22),21:15.29 (4:19.64)   F 3,
149 125   Devita Adrienne Champlain Valley XC Club   0.2365 3:02.91 (3:02.91),7:18.09 (4:15.18),12:18.24 (5:00.16),16:50.57 (4:32.33),21:15.87 (4:25.31)   F 3,
150 81   Baulier Morgan Carroll XC Club   2.1900 3:05.20 (3:05.20),7:22.80 (4:17.60),12:20.73 (4:57.94),16:55.33 (4:34.60),21:17.86 (4:22.54)   F 3,
151 126   Devita Julienne Champlain Valley XC Club   0.9596 3:04.87 (3:04.87),7:24.62 (4:19.75),12:22.27 (4:57.66),16:53.95 (4:31.68),21:19.10 (4:25.16)   F 3,
152 184   Emery Shannon Temecula XC Club   1.6244 2:58.85 (2:58.85),7:19.93 (4:21.08),12:24.04 (5:04.12),16:56.64 (4:32.60),21:20.47 (4:23.84)   F 3,
153 193   Souza Shanoah La Costa XC Club   1.4869 3:00.22 (3:00.22),7:19.72 (4:19.50),12:21.68 (5:01.97),16:51.85 (4:30.17),21:22.25 (4:30.41)   F 3,
154 50   Cline Michelle Bozeman XC Club   0.1899 3:09.93 (3:09.93),7:32.59 (4:22.66),12:29.90 (4:57.32),16:55.98 (4:26.08),21:22.05 (4:26.08)   F 3,
155 12   Platt Brittney Eden Praire XC Club   0.1082 3:04.66 (3:04.66),7:22.95 (4:18.29),12:19.57 (4:56.63),16:56.05 (4:36.48),21:22.21 (4:26.17)   F 3,
156 14   Tauer Andria Eden Praire XC Club   0.9447 3:04.71 (3:04.71),7:22.90 (4:18.19),12:22.87 (4:59.98),16:56.52 (4:33.65),21:23.53 (4:27.02)   F 3,
157 118   Carney Shannon Hunterdon XC Club   0.5414 3:05.43 (3:05.43),7:27.37 (4:21.94),12:29.36 (5:02.00),17:00.92 (4:31.56),21:23.84 (4:22.93)   F 3,
158 88   Lyons Margo The Woodlands XC Club   0.0642 3:00.77 (3:00.77),7:24.20 (4:23.43),12:26.59 (5:02.40),17:01.60 (4:35.01),21:23.71 (4:22.12)   F 3,
159 180   Tong Jenna Manhattan Beach XC Club   0.4922 3:05.86 (3:05.86),7:25.51 (4:19.65),12:30.31 (5:04.81),17:06.00 (4:35.69),21:24.43 (4:18.44)   F 3,
160 6   Svendsen Nicole Des Moines XC Club   0.7831 3:08.27 (3:08.27),7:26.81 (4:18.54),12:29.35 (5:02.55),17:00.26 (4:30.91),21:25.11 (4:24.86)   F 3,
161 101   Bottorff Cara Wilmington XC Club   0.8338 3:04.61 (3:04.61),7:27.20 (4:22.59),12:32.16 (5:04.97),17:02.92 (4:30.76),21:26.00 (4:23.09)   F 3,
162 83   Tucker Molly Carroll XC Club   5.3928 3:03.48 (3:03.48),7:23.82 (4:20.34),12:26.26 (5:02.45),16:59.01 (4:32.75),21:31.44 (4:32.44)   F 3,
163 89   Murray Colleen The Woodlands XC Club   2.0692 3:08.67 (3:08.67),7:29.28 (4:20.61),12:31.35 (5:02.08),17:06.94 (4:35.59),21:33.44 (4:26.51)   F 3,
164 163   Schmelzle Hope Wheaton South XC Club   1.8234 2:55.49 (2:55.49),7:11.80 (4:16.31),12:14.93 (5:03.14),16:53.64 (4:38.71),21:35.29 (4:41.66)   F 3,
165 185   Seymour Rachel Temecula XC Club   1.4861 3:05.05 (3:05.05),7:25.30 (4:20.25),12:26.70 (5:01.41),17:03.41 (4:36.71),21:36.71 (4:33.31)   F 3,
166 164   Kelly Clare Wheaton South XC Club   3.1320 2:58.59 (2:58.59),7:14.25 (4:15.66),12:23.81 (5:09.57),17:04.31 (4:40.50),21:39.96 (4:35.66)   F 3,
167 100   Williams Julie Wilmington XC Club   0.7489 3:03.33 (3:03.33),7:22.26 (4:18.93),12:30.99 (5:08.74),17:07.85 (4:36.86),21:40.72 (4:32.88)   F 3,
168 194   Steigerwald Janell La Costa XC Club   1.6868 3:06.78 (3:06.78),7:32.67 (4:25.89),12:38.50 (5:05.84),17:16.19 (4:37.69),21:42.27 (4:26.09)   F 3,
169 82   Johnson Felice Carroll XC Club   1.6960 3:01.54 (3:01.54),7:21.18 (4:19.64),12:26.50 (5:05.33),17:05.48 (4:38.98),21:43.93 (4:38.46)   F 3,
170 186   Bales Alia Temecula XC Club   2.8922 3:05.66 (3:05.66),7:36.44 (4:30.78),12:43.00 (5:06.57),17:20.28 (4:37.28),21:46.90 (4:26.63)   F 3,
171 119   McGill Brigid Hunterdon XC Club   0.1191 3:05.24 (3:05.24),7:26.95 (4:21.71),12:30.91 (5:03.97),17:09.59 (4:38.68),21:46.88 (4:37.30)   F 3,
172 5   Schumacher Addie Des Moines XC Club   0.1958 3:05.28 (3:05.28),7:27.42 (4:22.14),12:32.24 (5:04.83),17:11.07 (4:38.83),21:47.14 (4:36.08)   F 3,
173 2   Hubbell Diane Des Moines XC Club   0.6563 3:08.93 (3:08.93),7:38.05 (4:29.12),12:41.34 (5:03.30),17:16.65 (4:35.31),21:47.80 (4:31.16)   F 3,
174 152   Reilly Molly Glen Head XC Club   4.5407 3:07.13 (3:07.13),7:32.47 (4:25.34),12:43.16 (5:10.70),17:24.69 (4:41.53),21:52.38 (4:27.70)   F 3,
175 78   Harper Rachel Carroll XC Club   0.9130 3:03.18 (3:03.18),7:17.71 (4:14.53),12:13.47 (4:55.77),16:49.13 (4:35.66),21:53.41 (5:04.29)   F 3,
176 23   Smith Ellen Palatine XC Club   1.5327 3:06.43 (3:06.43),7:35.38 (4:28.95),12:47.34 (5:11.97),17:28.71 (4:41.37),21:54.99 (4:26.29)   F 3,
177 29   Kahre Lauren Carmel XC Club   0.4431 3:05.59 (3:05.59),7:29.56 (4:23.97),12:37.40 (5:07.85),17:18.96 (4:41.56),21:55.32 (4:36.37)   F 3,
178 166   Long Amy Wheaton South XC Club   0.1991 2:58.60 (2:58.60),7:20.93 (4:22.33),12:40.12 (5:19.20),17:33.34 (4:53.22),21:55.49 (4:22.16)   F 3,
179 90   Lyons Anna The Woodlands XC Club   2.8097 3:04.00 (3:04.00),7:29.31 (4:25.31),12:42.50 (5:13.20),17:27.59 (4:45.09),21:58.34 (4:30.76)   F 3,
180 121   Hahn Kathryn Hunterdon XC Club   7.6627 3:06.09 (3:06.09),7:40.26 (4:34.17),12:45.86 (5:05.61),17:30.43 (4:44.57),22:06.05 (4:35.63)   F 3,
181 86   Willard Katie The Woodlands XC Club   1.3262 2:50.78 (2:50.78),7:09.81 (4:19.03),12:21.21 (5:11.41),17:14.63 (4:53.42),22:07.39 (4:52.77)   F 3,
182 46   Bradshaw Brigid Bozeman XC Club   1.7451 3:12.26 (3:12.26),7:41.50 (4:29.24),12:56.16 (5:14.67),17:37.09 (4:40.93),22:09.13 (4:32.05)   F 3,
183 71   Elvig Lauren Louisville XC Club   1.4594 3:08.68 (3:08.68),7:41.38 (4:32.70),12:57.99 (5:16.62),17:43.15 (4:45.16),22:10.55 (4:27.41)   F 3,
184 120   Seiffert Erin Hunterdon XC Club   0.9746 3:06.09 (3:06.09),7:36.99 (4:30.90),12:50.89 (5:13.91),17:33.93 (4:43.04),22:11.40 (4:37.48)   F 3,
185 44   Artaiz Olivia Portland XC Club   2.0917 3:04.24 (3:04.24),7:38.94 (4:34.70),12:54.98 (5:16.05),17:42.50 (4:47.52),22:13.33 (4:30.84)   F 3,
186 127   Hess Sophie Champlain Valley XC Club   0.2207 3:06.56 (3:06.56),7:34.94 (4:28.38),12:48.10 (5:13.17),17:33.79 (4:45.69),22:13.55 (4:39.77)   F 3,
187 79   Kriegshauser Courtney Carroll XC Club   0.0592 3:03.36 (3:03.36),7:31.01 (4:27.65),12:49.50 (5:18.50),17:36.29 (4:46.79),22:13.63 (4:37.35)   F 3,
188 153   Muoio Danielle Glen Head XC Club   2.7372 3:06.62 (3:06.62),7:31.73 (4:25.11),12:43.27 (5:11.55),17:31.40 (4:48.13),22:16.45 (4:45.06)   F 3,
189 70   Stanford Mattie Louisville XC Club   7.5678 3:08.40 (3:08.40),7:41.29 (4:32.89),12:56.13 (5:14.85),17:42.42 (4:46.29),22:24.08 (4:41.67)   F 3,
190 178   Locke-Henderson Sarah Manhattan Beach XC Club   2.2224 3:15.09 (3:15.09),8:00.64 (4:45.55),13:12.97 (5:12.34),17:56.02 (4:43.05),22:26.29 (4:30.28)   F 3,
191 165   Lobsinger Hana Wheaton South XC Club   0.1066 3:03.95 (3:03.95),7:38.45 (4:34.50),12:55.21 (5:16.77),17:48.11 (4:52.90),22:26.42 (4:38.32)   F 3,
192 108   Weldense Shewit Western Cary XC Club   3.9093 3:11.18 (3:11.18),7:45.04 (4:33.86),12:58.33 (5:13.30),17:48.45 (4:50.12),22:30.38 (4:41.94)   F 3,
193 187   Helbig Ashley Temecula XC Club   4.6622 3:11.79 (3:11.79),7:50.76 (4:38.97),13:06.93 (5:16.18),17:53.70 (4:46.77),22:35.13 (4:41.44)   F 3,
194 109   Brown Charlotte Western Cary XC Club   3.0696 3:11.69 (3:11.69),7:45.92 (4:34.23),13:03.75 (5:17.84),17:53.85 (4:50.10),22:38.29 (4:44.45)   F 3,
195 154   Osman Emily Glen Head XC Club   1.6869 3:06.84 (3:06.84),7:37.17 (4:30.33),12:56.50 (5:19.34),17:51.10 (4:54.60),22:39.87 (4:48.78)   F 3,
196 190   Al-Shamma Gabriela La Costa XC Club   8.5948 3:17.58 (3:17.58),8:04.19 (4:46.61),13:21.72 (5:17.54),18:06.60 (4:44.88),22:48.51 (4:41.92)   F 3,
197 128   Trotter Claire Champlain Valley XC Club   6.5648 3:07.88 (3:07.88),7:48.75 (4:40.87),13:12.19 (5:23.45),18:05.90 (4:53.71),22:55.02 (4:49.13)   F 3,
198 189   Shain Kendall La Costa XC Club   8.0967 3:15.28 (3:15.28),8:03.50 (4:48.22),13:26.82 (5:23.33),18:15.84 (4:49.02),23:02.94 (4:47.11)   F 3,
199
102

Voltz
Lindsay
Wilmington XC Club

5.2771
3:01.27 (3:01.27),7:41.01 (4:39.74),13:12.04 (5:31.04),18:12.62 (5:00.58),23:08.32 (4:55.71)

F
3,


property of Record Timing. for statistical and entertainment use only.